LFMU/BZR METAR and TAF weather

Enter ICAO airport designator
Station Type Date Time Source
LFMU METAR 2020/04/04 11:00 UTC NOAA

LFMU 041100Z AUTO 17009KT CAVOK 16/02 Q1020


Station Type Date Time Source
LFMU Decoded METAR 2020/04/04 11:00 UTC NOAA

Beziers / Vias, France (LFMU) 43-19N 003-21E
Apr 04, 2020 - 07:00 AM EDT / 2020.04.04 1100 UTC
Wind: from the S (170 degrees) at 10 MPH (9 KT):0
Visibility: greater than 7 mile(s):0
Temperature: 60 F (16 C)
Dew Point: 35 F (2 C)
Relative Humidity: 38%
Pressure (altimeter): 30.12 in. Hg (1020 hPa)
ob: LFMU 041100Z AUTO 17009KT CAVOK 16/02 Q1020
cycle: 11

Station Type Date Time Source
LFMU TAF 2020/03/24 09:21 UTC NOAA

TAF LFMU 240800Z 2409/2509 13010KT 9999 BKN030 BKN040
TEMPO 2418/2423 SHRA FEW035TCU
BECMG 2500/2502 03005KT

Example: see airport list